Flight Track Log - Related Links

Times and Time Zones

All times are in EDT time to prevent confusion due to time zone crossing. See the AAL2007 flight status page for this flight to view local times or setup timezone preferences in your user account.

Time Position Orientation Groundspeed Altitude Reporting Facility
EDT Latitude Longitude Course Direction KTS MPH feet Rate Location/Type
Wed 06:08:02 PM 41.9667 -87.8667 207° Southwest 166 191 2,200  Level Chicago TRACON
Wed 06:09:04 PM 41.9333 -87.8217 135° Southeast 206 237 3,600 1,935 Climbing Chicago Center
Wed 06:10:00 PM 41.7009 -88.1876 201° Southwest  Level Estimated
Wed 06:10:06 PM 41.8703 -87.8247 182° South 246 283 6,200  Level Chicago Center
Wed 06:11:00 PM 41.6072 -88.2807 197° South  Level Estimated
Wed 06:11:09 PM 41.8053 -87.8858 215° Southwest 282 325 8,400  Level Chicago Center
Wed 06:12:00 PM 41.5134 -88.3736 194° South  Level Estimated
Wed 06:12:11 PM 41.7344 -87.9369 208° Southwest 290 334 10,000  Level Chicago Center
Wed 06:13:00 PM 41.4195 -88.4661 207° Southwest  Level Estimated
Wed 06:13:13 PM 41.6475 -88.0006 209° Southwest 298 343 11,300  Level Chicago Center
Wed 06:14:15 PM 41.5731 -88.0561 209° Southwest 307 353 13,200 1,887 Climbing Chicago Center
Wed 06:15:17 PM 41.4875 -88.1194 209° Southwest 351 404 15,200 2,177 Climbing Chicago Center
Wed 06:16:19 PM 41.3794 -88.1928 207° Southwest 380 437 17,700 2,177 Climbing Chicago Center
Wed 06:17:21 PM 41.2758 -88.2392 199° South 398 458 19,700 1,839 Climbing Chicago Center
Wed 06:18:23 PM 41.1692 -88.2883 199° South 407 468 21,500 1,645 Climbing Chicago Center
Wed 06:19:25 PM 41.0586 -88.3369 198° South 419 482 23,100 1,452 Climbing Chicago Center
Wed 06:20:27 PM 40.9444 -88.3889 199° South 434 499 24,500 1,597 Climbing Chicago Center
Wed 06:21:29 PM 40.8050 -88.4506 199° South 442 509 26,400 1,645 Climbing Chicago Center
Wed 06:22:31 PM 40.6853 -88.5039 199° South 452 520 27,900 1,597 Climbing Chicago Center
Wed 06:23:33 PM 40.5672 -88.5567 199° South 453 521 29,700 1,452 Climbing Chicago Center
Wed 06:24:35 PM 40.4461 -88.6100 199° South 450 518 30,900 1,008 Climbing Chicago Center
Wed 06:25:38 PM 40.3261 -88.6644 199° South 453 521 31,800 1,008 Climbing Chicago Center
Wed 06:26:40 PM 40.2372 -88.7708 222° Southwest 435 501 33,000 968 Climbing Chicago Center
Wed 06:27:42 PM 40.1517 -88.8794 224° Southwest 427 491 33,800 484 Climbing Chicago Center
Wed 06:28:44 PM 40.0469 -89.0061 223° Southwest 427 491 34,000 97 Climbing Chicago Center
Wed 06:29:46 PM 39.9542 -89.1036 219° Southwest 427 491 34,000  Level Chicago Center
Wed 06:30:29 PM 39.8975 -89.1647 220° Southwest 429 494 34,000  Level Kansas City Center
Wed 06:31:31 PM 39.8056 -89.2658 220° Southwest 430 495 34,000  Level Kansas City Center
Wed 06:32:33 PM 39.6942 -89.3858 220° Southwest 432 497 34,000  Level Kansas City Center
Wed 06:33:35 PM 39.6106 -89.4778 220° Southwest 432 497 34,000  Level Kansas City Center
Wed 06:34:37 PM 39.5181 -89.5772 220° Southwest 432 497 34,000  Level Kansas City Center
Wed 06:35:39 PM 39.4086 -89.6953 220° Southwest 429 494 34,000  Level Kansas City Center
Wed 06:36:41 PM 39.3169 -89.7922 219° Southwest 427 491 34,000  Level Kansas City Center
Wed 06:37:43 PM 39.2253 -89.8906 220° Southwest 428 493 34,000  Level Kansas City Center
Wed 06:38:45 PM 39.1350 -89.9889 220° Southwest 426 490 34,000  Level Kansas City Center
Wed 06:39:48 PM 39.0419 -90.0856 219° Southwest 429 494 34,000  Level Kansas City Center
Wed 06:40:50 PM 38.9272 -90.2050 219° Southwest 435 501 34,000  Level Kansas City Center
Wed 06:41:52 PM 38.8356 -90.3033 220° Southwest 432 497 34,000  Level Kansas City Center
Wed 06:42:54 PM 38.7428 -90.4025 220° Southwest 432 497 34,000  Level Kansas City Center
Wed 06:43:56 PM 38.6456 -90.5008 218° Southwest 446 513 34,000  Level Kansas City Center
Wed 06:44:58 PM 38.5503 -90.5978 219° Southwest 437 503 34,000  Level Kansas City Center
Wed 06:46:00 PM 38.4481 -90.7042 219° Southwest 436 502 34,000  Level Kansas City Center
Wed 06:47:02 PM 38.3531 -90.8022 219° Southwest 438 504 34,000  Level Kansas City Center
Wed 06:48:04 PM 38.2592 -90.8975 219° Southwest 435 501 34,000  Level Kansas City Center
Wed 06:49:06 PM 38.1653 -90.9947 219° Southwest 435 501 34,000  Level Kansas City Center
Wed 06:50:08 PM 38.0578 -91.1033 219° Southwest 432 497 34,000  Level Kansas City Center
Wed 06:51:10 PM 37.9633 -91.1997 219° Southwest 432 497 34,000  Level Kansas City Center
Wed 06:52:12 PM 37.8672 -91.2969 219° Southwest 436 502 34,000  Level Kansas City Center
Wed 06:53:14 PM 37.7731 -91.3922 219° Southwest 433 498 34,000  Level Kansas City Center
Wed 06:54:16 PM 37.6789 -91.4878 219° Southwest 431 496 34,000  Level Kansas City Center
Wed 06:55:18 PM 37.5653 -91.6014 218° Southwest 431 496 34,000  Level Kansas City Center
Wed 06:56:20 PM 37.4717 -91.6950 218° Southwest 428 493 34,000  Level Kansas City Center
Wed 06:57:22 PM 37.3761 -91.7903 218° Southwest 430 495 34,000  Level Kansas City Center
Wed 06:58:24 PM 37.2803 -91.8856 218° Southwest 433 498 34,000  Level Kansas City Center
Wed 06:59:26 PM 37.1847 -91.9806 218° Southwest 435 501 34,000  Level Kansas City Center
Wed 07:00:28 PM 37.0878 -92.0769 218° Southwest 438 504 34,000  Level Kansas City Center
Wed 07:01:30 PM 36.9911 -92.1731 218° Southwest 441 507 34,000  Level Kansas City Center
Wed 07:02:32 PM 36.8936 -92.2669 218° Southwest 441 507 34,000  Level Kansas City Center
Wed 07:03:34 PM 36.7769 -92.3828 219° Southwest 442 509 34,000  Level Kansas City Center
Wed 07:04:36 PM 36.6800 -92.4775 218° Southwest 441 507 34,000  Level Kansas City Center
Wed 07:05:39 PM 36.5817 -92.5719 218° Southwest 435 501 34,000  Level Kansas City Center
Wed 07:06:41 PM 36.4858 -92.6614 217° Southwest 433 498 34,000  Level Kansas City Center
Wed 07:07:43 PM 36.3914 -92.7528 218° Southwest 431 496 34,000  Level Kansas City Center
Wed 07:08:56 PM 36.2731 -92.8669 218° Southwest 445 512 34,000  Level Memphis Center
Wed 07:09:56 PM 36.1794 -92.9567 218° Southwest 440 506 34,000  Level Memphis Center
Wed 07:10:56 PM 36.0836 -93.0511 219° Southwest 440 506 34,000  Level Memphis Center
Wed 07:11:56 PM 35.9881 -93.1353 215° Southwest 440 506 34,000  Level Memphis Center
Wed 07:12:56 PM 35.8922 -93.2294 219° Southwest 440 506 34,000  Level Memphis Center
Wed 07:13:56 PM 35.7961 -93.3208 218° Southwest 445 512 34,000  Level Memphis Center
Wed 07:14:56 PM 35.7000 -93.4094 217° Southwest 445 512 34,000  Level Memphis Center
Wed 07:15:56 PM 35.6019 -93.5003 217° Southwest 445 512 34,000  Level Memphis Center
Wed 07:16:56 PM 35.5058 -93.5908 217° Southwest 445 512 34,000  Level Memphis Center
Wed 07:17:56 PM 35.4075 -93.6814 217° Southwest 445 512 34,000  Level Memphis Center
Wed 07:18:56 PM 35.3133 -93.7692 217° Southwest 445 512 34,000  Level Memphis Center
Wed 07:19:56 PM 35.2106 -93.8592 216° Southwest 445 512 34,000  Level Memphis Center
Wed 07:20:56 PM 35.1078 -93.9589 218° Southwest 445 512 34,000  Level Memphis Center
Wed 07:21:56 PM 35.0133 -94.0486 218° Southwest 446 513 34,000  Level Memphis Center
Wed 07:24:15 PM 34.7908 -94.2556 217° Southwest 440 506 34,000  Level Fort Worth Center
Wed 07:25:15 PM 34.6931 -94.3450 217° Southwest 440 506 34,000  Level Fort Worth Center
Wed 07:26:15 PM 34.5950 -94.4319 216° Southwest 440 506 34,000  Level Fort Worth Center
Wed 07:27:15 PM 34.4969 -94.5208 217° Southwest 440 506 34,000  Level Fort Worth Center
Wed 07:28:15 PM 34.3967 -94.6097 216° Southwest 451 519 34,000  Level Fort Worth Center
Wed 07:29:15 PM 34.2983 -94.6986 217° Southwest 451 519 34,000  Level Fort Worth Center
Wed 07:30:15 PM 34.2003 -94.7869 217° Southwest 445 512 34,000  Level Fort Worth Center
Wed 07:31:15 PM 34.1019 -94.8753 217° Southwest 445 512 34,000  Level Fort Worth Center
Wed 07:32:15 PM 34.0014 -94.9633 216° Southwest 445 512 34,000  Level Fort Worth Center
Wed 07:33:15 PM 33.9050 -95.0511 217° Southwest 445 512 34,000  Level Fort Worth Center
Wed 07:34:15 PM 33.8064 -95.1361 216° Southwest 445 512 34,000  Level Fort Worth Center
Wed 07:35:15 PM 33.7056 -95.2261 217° Southwest 445 512 34,000  Level Fort Worth Center
Wed 07:36:15 PM 33.6089 -95.3108 216° Southwest 440 506 34,000  Level Fort Worth Center
Wed 07:37:15 PM 33.5103 -95.3981 216° Southwest 453 521 34,000  Level Fort Worth Center
Wed 07:38:14 PM 33.4094 -95.4850 216° Southwest 453 521 34,000  Level Fort Worth Center
Wed 07:39:15 PM 33.3064 -95.5717 215° Southwest 447 514 34,000  Level Fort Worth Center
Wed 07:40:14 PM 33.2217 -95.6453 216° Southwest 441 507 34,000  Level Fort Worth Center
Wed 07:41:14 PM 33.1206 -95.7317 216° Southwest 447 514 34,000  Level Fort Worth Center
Wed 07:42:15 PM 33.0194 -95.8203 216° Southwest 447 514 34,000  Level Fort Worth Center
Wed 07:43:15 PM 32.9183 -95.9089 216° Southwest 447 514 34,000  Level Fort Worth Center
Wed 07:44:15 PM 32.8169 -95.9969 216° Southwest 447 514 34,000  Level Fort Worth Center
Wed 07:45:15 PM 32.7178 -96.0800 215° Southwest 447 514 34,000  Level Fort Worth Center
Wed 07:46:15 PM 32.6164 -96.1703 217° Southwest 447 514 34,000  Level Fort Worth Center
Wed 07:47:14 PM 32.5150 -96.2556 215° Southwest 447 514 34,000  Level Fort Worth Center
Wed 07:48:15 PM 32.4114 -96.3431 215° Southwest 447 514 34,000  Level Fort Worth Center
Wed 07:49:15 PM 32.3119 -96.4303 217° Southwest 447 514 34,000  Level Fort Worth Center
Wed 07:50:14 PM 32.2081 -96.5172 215° Southwest 447 514 34,000  Level Fort Worth Center
Wed 07:51:15 PM 32.1042 -96.6017 215° Southwest 452 520 34,000  Level Fort Worth Center
Wed 07:52:15 PM 32.0047 -96.6956 219° Southwest 457 526 34,000  Level Fort Worth Center
Wed 07:53:14 PM 31.9594 -96.8256 248° West 439 505 34,000  Level Fort Worth Center
Wed 07:54:15 PM 31.9683 -96.9678 274° West 413 475 34,000 -198 Level Fort Worth Center
Wed 07:55:15 PM 31.9122 -97.1000 243° Southwest 418 481 33,600 -850 Descending Fort Worth Center
Wed 07:56:15 PM 31.7869 -97.0981 179° South 352 405 32,300 -1,750 Descending Fort Worth Center
Wed 07:57:15 PM 31.6764 -97.1350 196° South 404 465 30,100 -2,892 Descending Fort Worth Center
Wed 07:58:34 PM 31.5058 -97.1639 188° South 472 543 25,600 -3,191 Descending Houston Center
Wed 07:59:36 PM 31.3728 -97.1836 187° South 476 548 22,600 -3,000 Descending Houston Center
Wed 08:00:38 PM 31.2239 -97.2081 188° South 463 533 19,400 -2,806 Descending Houston Center
Wed 08:01:40 PM 31.1089 -97.2500 197° South 437 503 16,800 -2,419 Descending Houston Center
Wed 08:02:42 PM 31.0000 -97.2925 198° South 422 486 14,400 -1,839 Descending Houston Center
Wed 08:03:44 PM 30.8994 -97.3322 199° South 408 470 13,000 -823 Descending Houston Center
Wed 08:04:46 PM 30.7864 -97.3775 199° South 368 423 12,700 -774 Descending Houston Center
Wed 08:05:48 PM 30.7103 -97.4408 216° Southwest 334 384 11,400 -1,887 Descending Houston Center
Wed 08:06:50 PM 30.6414 -97.4975 215° Southwest 310 357 8,800 -2,274 Descending Houston Center
Wed 08:07:52 PM 30.5719 -97.5528 214° Southwest 302 348 6,700 -2,129 Descending Houston Center
Wed 08:08:54 PM 30.5094 -97.5914 208° Southwest 262 302 4,400 -1,694 Descending Houston Center
Wed 08:09:56 PM 30.4522 -97.6247 207° Southwest 238 274 3,200 -677 Descending Houston Center
Wed 08:10:58 PM 30.3997 -97.6569 208° Southwest 219 252 3,000 -194 Descending Houston Center

Login

Don't have an account? Register now (free) for customized features, flight alerts, and more!